Reynoldsburg, OH (43068)

8:06 AM EDT on September 04, 2015 (GMT -0400)
Timber Creek | | Change Station
CLOSE
Current Station
Personal Weather Station
Location: Reynoldsburg, OH
Elevation: 926 ft
Nearby Weather Stations

Elev 926 ft 39.98 °N, 82.81 °W | Updated 6 seconds ago

Overcast
Overcast
68.5 °F
Feels Like 68.5 °F
N
1.6
Wind Variable Wind from East
Gusts 3.1 mph

Today
High -- | Low -- °F
--% Chance of Precip.
Yesterday
High -- | Low -- °F
Precip. -- in
7:01 AM 7:58 PM
Waning Gibbous, 60% visible
Pressure 30.03 in
Visibility 8.0 miles
Clouds Scattered Clouds 7500 ft
Mostly Cloudy 13000 ft
Overcast 20000 ft
Dew Point 68 °F
Humidity 99%
Rainfall 0.00 in
Snow Depth Not available.
UV 0 out of 12
Pollen 9.90 out of 12
Air Quality Not available.
Flu Activity Not available.
METAR KCMH 041151Z 14007KT 8SM SCT075 BKN130 OVC200 20/18 A3005 RMK AO2 SLP169 70105 T02000183 10211 20200 53014
Pressure 30.03 in
Visibility 8.0 miles
Clouds Scattered Clouds 7500 ft
Mostly Cloudy 13000 ft
Overcast 20000 ft
Dew Point 68 °F
Humidity 99%
Rainfall 0.00 in
Snow Depth Not available.
UV 0 out of 12
Pollen 9.90 out of 12
Air Quality Not available.
Flu Activity Not available.
METAR KCMH 041151Z 14007KT 8SM SCT075 BKN130 OVC200 20/18 A3005 RMK AO2 SLP169 70105 T02000183 10211 20200 53014

10-Day Weather Forecast

×

Almanac

Astronomy

Sep. 04, 2015 Rise Set
Actual Time
Civil Twilight
Nautical Twilight
Astronomical Twilight
Moon
Length of Visible Light
Length of Day
Tomorrow will be .
, % of the Moon is Illuminated

Today's Extremes

State Highs State Lows

Community

WunderPhotos

Upload Photos

1,852,161 photos uploaded!

WunderBlogs® & News

Nearby

Air Quality

  Air Quality AQ Index Pollutant
Not available.

Snow Depth

Station Depth Elevation

Earthquake Activity

City Distance Mag. Time & Date
Minimum magnitude displayed is 2.5.

Coastal Water Temperatures

Place Temperature

Stations

Nearby Weather Stations

Station Location Temp. Windchill Dew Point Humidity Wind Precip. Elev Updated Type